createdAt,value
2023-04-07T00:00:06.320Z,12.77
2023-04-07T00:05:07.989Z,15.30
2023-04-07T00:10:09.845Z,14.45
2023-04-07T00:15:11.656Z,17.50
2023-04-07T00:20:13.132Z,16.55
2023-04-07T00:25:14.881Z,12.82
2023-04-07T00:30:16.452Z,15.52
2023-04-07T00:35:18.057Z,15.07
2023-04-07T00:40:19.653Z,14.75
2023-04-07T00:45:21.383Z,14.98
2023-04-07T00:50:22.884Z,12.63
2023-04-07T00:55:24.408Z,13.13
2023-04-07T01:00:27.542Z,15.60
2023-04-07T01:05:39.276Z,17.10
2023-04-07T01:10:46.618Z,18.48
2023-04-07T01:15:49.757Z,16.52
2023-04-07T01:20:52.718Z,19.25
2023-04-07T01:26:01.032Z,15.20
2023-04-07T01:31:03.216Z,15.65
2023-04-07T01:36:05.739Z,14.10
2023-04-07T01:41:07.589Z,19.02
2023-04-07T01:46:09.318Z,16.80
2023-04-07T01:51:12.099Z,21.13
2023-04-07T01:56:13.782Z,20.23
2023-04-07T02:01:15.473Z,22.83
2023-04-07T02:06:19.629Z,14.52
2023-04-07T02:11:22.419Z,19.60
2023-04-07T02:16:24.382Z,14.43
2023-04-07T02:21:27.279Z,15.98
2023-04-07T02:26:34.274Z,11.70
2023-04-07T02:31:36.947Z,12.98
2023-04-07T02:36:39.544Z,15.88
2023-04-07T02:41:41.448Z,12.40
2023-04-07T02:46:43.158Z,9.40
2023-04-07T02:51:47.100Z,14.75
2023-04-07T02:56:49.043Z,13.98
2023-04-07T03:01:51.044Z,15.00
2023-04-07T03:06:52.725Z,11.63
2023-04-07T03:11:54.481Z,13.43
2023-04-07T03:16:56.617Z,11.18
2023-04-07T03:21:58.135Z,11.40
2023-04-07T03:26:59.723Z,11.73
2023-04-07T03:32:01.366Z,14.18
2023-04-07T03:37:03.051Z,13.50
2023-04-07T03:42:04.675Z,11.57
2023-04-07T03:47:06.190Z,13.48
2023-04-07T03:52:07.714Z,13.25
2023-04-07T03:57:09.529Z,11.38
2023-04-07T04:02:11.512Z,16.10
2023-04-07T04:07:13.179Z,11.82
2023-04-07T04:12:14.779Z,15.48
2023-04-07T04:17:16.444Z,15.02
2023-04-07T04:22:18.388Z,13.73
2023-04-07T04:27:20.231Z,16.88
2023-04-07T04:32:21.727Z,14.50
2023-04-07T04:37:23.196Z,12.18
2023-04-07T04:42:26.379Z,15.73
2023-04-07T04:47:28.179Z,13.25
2023-04-07T04:52:30.158Z,15.15
2023-04-07T04:57:31.780Z,16.27
2023-04-07T05:02:33.675Z,14.00
2023-04-07T05:07:35.859Z,17.23
2023-04-07T05:12:37.467Z,14.45
2023-04-07T05:17:39.075Z,15.20
2023-04-07T05:22:41.409Z,14.95
2023-04-07T05:27:43.022Z,13.52
2023-04-07T05:32:44.631Z,16.65
2023-04-07T05:37:46.357Z,16.00
2023-04-07T05:42:47.876Z,19.08
2023-04-07T05:47:50.750Z,15.57
2023-04-07T05:52:52.210Z,13.27
2023-04-07T05:57:53.976Z,17.02
2023-04-07T06:02:57.340Z,15.38
2023-04-07T06:07:59.122Z,14.48
2023-04-07T06:13:01.158Z,15.20
2023-04-07T06:18:02.781Z,13.57
2023-04-07T06:23:04.632Z,13.27
2023-04-07T06:28:06.372Z,18.15
2023-04-07T06:33:07.864Z,13.20
2023-04-07T06:38:11.568Z,13.70
2023-04-07T06:43:13.134Z,15.43
2023-04-07T06:48:14.617Z,15.05
2023-04-07T06:53:16.464Z,14.93
2023-04-07T06:58:18.201Z,13.55
2023-04-07T07:03:20.162Z,14.25
2023-04-07T07:08:22.716Z,20.73
2023-04-07T07:13:25.486Z,15.30
2023-04-07T07:18:27.213Z,20.30
2023-04-07T07:23:28.860Z,15.98
2023-04-07T07:28:30.576Z,15.40
2023-04-07T07:33:32.081Z,13.50
2023-04-07T07:38:36.015Z,16.63
2023-04-07T07:43:38.517Z,19.63
2023-04-07T07:48:40.747Z,13.77
2023-04-07T07:53:42.742Z,12.70
2023-04-07T07:58:44.653Z,15.95
2023-04-07T08:03:46.521Z,14.48
2023-04-07T08:08:48.700Z,16.10
2023-04-07T08:13:50.575Z,15.30
2023-04-07T08:18:52.473Z,19.67
2023-04-07T08:23:54.662Z,13.60
2023-04-07T08:28:58.693Z,16.50
2023-04-07T08:34:00.452Z,18.63
2023-04-07T08:39:02.397Z,17.58
2023-04-07T08:44:04.344Z,14.15
2023-04-07T08:49:09.691Z,19.17
2023-04-07T08:54:12.644Z,18.40
2023-04-07T08:59:15.391Z,17.40
2023-04-07T09:04:16.958Z,20.38
2023-04-07T09:09:18.781Z,15.68
2023-04-07T09:14:22.928Z,16.58
2023-04-07T09:19:24.948Z,15.55
2023-04-07T09:24:27.610Z,20.55
2023-04-07T09:29:29.247Z,16.38
2023-04-07T09:34:32.712Z,19.27
2023-04-07T09:39:34.958Z,16.45
2023-04-07T09:44:39.740Z,16.00
2023-04-07T09:49:54.576Z,16.38
2023-04-07T09:54:56.893Z,18.48
2023-04-07T09:59:59.164Z,21.75
2023-04-07T10:05:01.162Z,16.17
2023-04-07T10:10:05.908Z,17.15
2023-04-07T10:15:07.720Z,17.75
2023-04-07T10:20:10.706Z,18.33
2023-04-07T10:25:13.977Z,18.63
2023-04-07T10:30:17.122Z,15.45
2023-04-07T10:35:18.870Z,19.20
2023-04-07T10:40:27.019Z,22.25
2023-04-07T10:45:47.219Z,19.05
2023-04-07T10:51:15.913Z,17.08
2023-04-07T10:56:17.532Z,16.98
2023-04-07T11:01:19.895Z,17.27
2023-04-07T11:06:21.657Z,19.23
2023-04-07T11:11:55.959Z,16.27
2023-04-07T11:16:58.036Z,18.50
2023-04-07T11:22:28.718Z,16.63
2023-04-07T11:27:31.914Z,21.55
2023-04-07T11:32:33.467Z,20.02
2023-04-07T11:37:34.968Z,18.00
2023-04-07T11:42:37.242Z,17.38
2023-04-07T11:47:39.703Z,19.52
2023-04-07T11:52:45.010Z,20.98
2023-04-07T11:57:46.627Z,17.17
2023-04-07T12:02:48.460Z,17.10
2023-04-07T12:07:54.270Z,21.00
2023-04-07T12:12:57.563Z,20.92
2023-04-07T12:18:01.121Z,20.70
2023-04-07T12:23:02.831Z,18.92
2023-04-07T12:28:04.403Z,22.55
2023-04-07T12:33:06.452Z,22.25
2023-04-07T12:38:08.525Z,18.15
2023-04-07T12:43:10.182Z,19.30
2023-04-07T12:48:11.763Z,20.02
2023-04-07T12:53:13.564Z,18.67
2023-04-07T12:58:15.100Z,21.65
2023-04-07T13:03:17.054Z,16.23
2023-04-07T13:08:18.693Z,16.92
2023-04-07T13:13:20.376Z,20.75
2023-04-07T13:18:21.927Z,17.48
2023-04-07T13:23:23.418Z,21.20
2023-04-07T13:28:25.005Z,20.92
2023-04-07T13:33:29.311Z,18.45
2023-04-07T13:38:31.534Z,19.02
2023-04-07T13:43:33.326Z,18.55
2023-04-07T13:48:34.864Z,20.05
2023-04-07T13:53:36.446Z,20.95
2023-04-07T13:58:37.969Z,15.93
2023-04-07T14:03:39.680Z,24.60
2023-04-07T14:08:41.219Z,19.20
2023-04-07T14:13:42.851Z,18.83
2023-04-07T14:18:45.023Z,18.13
2023-04-07T14:23:47.631Z,18.55
2023-04-07T14:28:49.144Z,19.55
2023-04-07T14:33:51.163Z,19.35
2023-04-07T14:38:54.328Z,20.58
2023-04-07T14:43:56.741Z,20.52
2023-04-07T14:48:58.823Z,22.55
2023-04-07T14:54:00.489Z,25.17
2023-04-07T14:59:02.047Z,21.40
2023-04-07T15:04:04.135Z,22.98
2023-04-07T15:09:05.728Z,19.40
2023-04-07T15:14:07.293Z,23.05
2023-04-07T15:19:08.780Z,22.50
2023-04-07T15:24:10.413Z,22.85
2023-04-07T15:29:11.881Z,22.13
2023-04-07T15:34:16.365Z,21.30
2023-04-07T15:39:18.478Z,22.20
2023-04-07T15:44:20.269Z,21.67
2023-04-07T15:49:24.923Z,21.92
2023-04-07T15:54:27.779Z,18.00
2023-04-07T15:59:31.187Z,22.98
2023-04-07T16:04:32.977Z,22.35
2023-04-07T16:09:34.870Z,25.98
2023-04-07T16:14:37.018Z,19.92
2023-04-07T16:19:38.558Z,21.50
2023-04-07T16:24:40.043Z,18.17
2023-04-07T16:29:41.684Z,23.20
2023-04-07T16:34:43.289Z,24.00
2023-04-07T16:39:44.801Z,19.77
2023-04-07T16:44:46.393Z,26.35
2023-04-07T16:49:48.153Z,19.73
2023-04-07T16:54:50.192Z,19.83
2023-04-07T16:59:51.796Z,17.48
2023-04-07T17:04:53.842Z,16.38
2023-04-07T17:09:55.514Z,18.75
2023-04-07T17:14:57.075Z,14.98
2023-04-07T17:19:59.846Z,19.17
2023-04-07T17:25:01.355Z,17.92
2023-04-07T17:30:04.078Z,17.85
2023-04-07T17:35:05.853Z,19.27
2023-04-07T17:40:07.680Z,20.50
2023-04-07T17:45:09.537Z,20.60
2023-04-07T17:50:11.175Z,16.75
2023-04-07T17:55:12.756Z,22.58
2023-04-07T18:00:14.314Z,22.20
2023-04-07T18:05:16.883Z,29.75
2023-04-07T18:10:18.786Z,23.98
2023-04-07T18:15:21.112Z,23.42
2023-04-07T18:20:22.618Z,22.45
2023-04-07T18:25:24.354Z,19.45
2023-04-07T18:30:26.014Z,21.98
2023-04-07T18:35:28.628Z,23.13
2023-04-07T18:40:32.805Z,22.38
2023-04-07T18:45:36.986Z,20.40
2023-04-07T18:50:38.718Z,21.63
2023-04-07T18:55:40.450Z,21.85
2023-04-07T19:00:42.291Z,20.38
2023-04-07T19:05:47.293Z,22.55
2023-04-07T19:10:50.945Z,21.25
2023-04-07T19:15:53.149Z,25.83
2023-04-07T19:20:54.958Z,23.83
2023-04-07T19:25:56.581Z,21.35
2023-04-07T19:30:58.247Z,21.30
2023-04-07T19:35:59.754Z,23.90
2023-04-07T19:41:02.544Z,20.42
2023-04-07T19:46:04.959Z,26.17
2023-04-07T19:51:07.543Z,24.55
2023-04-07T19:56:09.389Z,23.15
2023-04-07T20:01:18.012Z,26.55
2023-04-07T20:06:20.958Z,26.70
2023-04-07T20:11:23.632Z,26.83
2023-04-07T20:16:25.284Z,26.17
2023-04-07T20:21:27.427Z,26.60
2023-04-07T20:26:28.947Z,21.80
2023-04-07T20:31:30.691Z,23.35
2023-04-07T20:36:32.168Z,24.35
2023-04-07T20:41:33.705Z,24.55
2023-04-07T20:46:35.300Z,27.08
2023-04-07T20:51:38.433Z,23.60
2023-04-07T20:56:40.067Z,20.25
2023-04-07T21:01:41.775Z,23.83
2023-04-07T21:06:43.794Z,22.60
2023-04-07T21:11:45.601Z,23.35
2023-04-07T21:16:47.031Z,21.30
2023-04-07T21:21:48.512Z,19.80
2023-04-07T21:26:50.007Z,22.65
2023-04-07T21:31:51.575Z,20.70
2023-04-07T21:36:53.464Z,20.00
2023-04-07T21:41:55.020Z,22.10
2023-04-07T21:46:56.600Z,20.88
2023-04-07T21:51:59.008Z,22.75
2023-04-07T21:57:01.096Z,21.13
2023-04-07T22:02:03.067Z,18.27
2023-04-07T22:07:04.645Z,23.02
2023-04-07T22:12:06.202Z,21.65
2023-04-07T22:17:07.685Z,24.27
2023-04-07T22:22:12.493Z,21.90
2023-04-07T22:27:13.976Z,21.63
2023-04-07T22:32:15.608Z,23.77
2023-04-07T22:37:17.184Z,23.42
2023-04-07T22:42:18.713Z,21.90
2023-04-07T22:47:20.792Z,22.35
2023-04-07T22:52:22.295Z,23.27
2023-04-07T22:57:24.550Z,21.25
2023-04-07T23:02:26.486Z,21.52
2023-04-07T23:07:28.046Z,22.02
2023-04-07T23:12:29.701Z,21.05
2023-04-07T23:17:31.634Z,19.55
2023-04-07T23:22:33.280Z,21.67
2023-04-07T23:27:34.957Z,19.33
2023-04-07T23:32:38.005Z,20.67
2023-04-07T23:37:39.630Z,22.23
2023-04-07T23:42:41.248Z,20.55
2023-04-07T23:47:42.974Z,20.10
2023-04-07T23:52:44.992Z,21.10
2023-04-07T23:57:46.597Z,21.13
